createdAt,value
2017-04-19T00:01:02.377Z,12
2017-04-19T00:02:15.354Z,12
2017-04-19T00:03:28.204Z,12
2017-04-19T00:04:40.564Z,12
2017-04-19T00:05:53.439Z,12
2017-04-19T00:07:06.288Z,8
2017-04-19T00:08:19.148Z,12
2017-04-19T00:09:31.999Z,12
2017-04-19T00:10:44.866Z,12
2017-04-19T00:11:57.227Z,4
2017-04-19T00:13:10.101Z,12
2017-04-19T00:14:23.177Z,12
2017-04-19T00:15:36.239Z,12
2017-04-19T00:16:49.047Z,4
2017-04-19T00:18:01.759Z,4
2017-04-19T00:19:14.488Z,4
2017-04-19T00:20:27.207Z,16
2017-04-19T00:21:39.938Z,16
2017-04-19T00:22:52.674Z,12
2017-04-19T00:24:05.446Z,4
2017-04-19T00:25:18.158Z,16
2017-04-19T00:26:30.896Z,16
2017-04-19T00:27:42.678Z,16
2017-04-19T00:28:55.404Z,12
2017-04-19T00:30:07.637Z,4
2017-04-19T00:31:20.358Z,4
2017-04-19T00:32:33.090Z,4
2017-04-19T00:33:45.908Z,16
2017-04-19T00:34:58.621Z,16
2017-04-19T00:36:11.342Z,16
2017-04-19T00:37:24.063Z,12
2017-04-19T00:38:36.779Z,12
2017-04-19T00:39:50.344Z,12
2017-04-19T00:41:03.074Z,12
2017-04-19T00:42:16.000Z,12
2017-04-19T00:43:28.724Z,12
2017-04-19T00:44:41.448Z,12
2017-04-19T00:45:54.193Z,4
2017-04-19T00:47:07.109Z,12
2017-04-19T00:48:20.024Z,4
2017-04-19T00:49:32.755Z,16
2017-04-19T00:50:45.496Z,16
2017-04-19T00:51:58.227Z,12
2017-04-19T00:53:11.162Z,12
2017-04-19T00:54:23.413Z,12
2017-04-19T00:55:36.142Z,12
2017-04-19T00:56:48.855Z,16
2017-04-19T00:58:01.594Z,12
2017-04-19T00:59:13.828Z,4
2017-04-19T01:00:26.550Z,4
2017-04-19T01:01:39.384Z,4
2017-04-19T01:02:52.091Z,12
2017-04-19T01:04:05.014Z,16
2017-04-19T01:05:17.748Z,12
2017-04-19T01:06:30.466Z,12
2017-04-19T01:07:43.175Z,12
2017-04-19T01:08:55.923Z,12
2017-04-19T01:10:08.208Z,12
2017-04-19T01:11:20.935Z,12
2017-04-19T01:12:32.693Z,4
2017-04-19T01:13:45.423Z,4
2017-04-19T01:14:58.174Z,12
2017-04-19T01:16:11.078Z,12
2017-04-19T01:17:23.890Z,12
2017-04-19T01:18:36.168Z,12
2017-04-19T01:19:49.121Z,4
2017-04-19T01:21:01.862Z,16
2017-04-19T01:22:14.603Z,12
2017-04-19T01:23:26.870Z,4
2017-04-19T01:24:39.620Z,4
2017-04-19T01:25:53.118Z,4
2017-04-19T01:27:05.833Z,12
2017-04-19T01:28:18.567Z,12
2017-04-19T01:29:31.431Z,12
2017-04-19T01:30:44.159Z,12
2017-04-19T01:31:56.898Z,12
2017-04-19T01:33:09.614Z,12
2017-04-19T01:34:22.326Z,12
2017-04-19T01:35:35.051Z,12
2017-04-19T01:36:47.285Z,12
2017-04-19T01:38:00.004Z,12
2017-04-19T01:39:12.719Z,4
2017-04-19T01:40:24.982Z,16
2017-04-19T01:41:37.714Z,16
2017-04-19T01:42:50.759Z,12
2017-04-19T01:44:03.186Z,4
2017-04-19T01:45:14.979Z,12
2017-04-19T01:46:27.219Z,12
2017-04-19T01:47:40.056Z,12
2017-04-19T01:48:52.898Z,12
2017-04-19T01:50:05.279Z,12
2017-04-19T01:51:17.644Z,12
2017-04-19T01:52:30.724Z,4
2017-04-19T01:53:43.096Z,4
2017-04-19T01:54:56.003Z,16
2017-04-19T01:56:08.897Z,12
2017-04-19T01:57:21.254Z,4
2017-04-19T01:58:34.108Z,16
2017-04-19T01:59:47.067Z,16
2017-04-19T02:00:59.928Z,16
2017-04-19T02:02:12.767Z,16
2017-04-19T02:03:25.952Z,16
2017-04-19T02:04:38.826Z,16
2017-04-19T02:05:51.703Z,12
2017-04-19T02:07:04.589Z,12
2017-04-19T02:08:17.459Z,12
2017-04-19T02:09:30.520Z,12
2017-04-19T02:10:42.904Z,12
2017-04-19T02:11:55.743Z,12
2017-04-19T02:13:08.945Z,12
2017-04-19T02:14:23.148Z,12
2017-04-19T02:15:36.006Z,4
2017-04-19T02:16:48.883Z,4
2017-04-19T02:18:01.360Z,12
2017-04-19T02:19:14.268Z,16
2017-04-19T02:20:27.161Z,12
2017-04-19T02:21:40.389Z,12
2017-04-19T02:22:53.603Z,12
2017-04-19T02:24:06.366Z,4
2017-04-19T02:25:19.083Z,4
2017-04-19T02:26:31.798Z,4
2017-04-19T02:27:45.039Z,12
2017-04-19T02:28:58.441Z,16
2017-04-19T02:30:11.161Z,12
2017-04-19T02:31:24.137Z,12
2017-04-19T02:32:37.001Z,4
2017-04-19T02:33:49.381Z,4
2017-04-19T02:35:01.276Z,12
2017-04-19T02:36:14.134Z,12
2017-04-19T02:37:27.050Z,4
2017-04-19T02:38:38.934Z,12
2017-04-19T02:39:51.829Z,12
2017-04-19T02:41:04.699Z,12
2017-04-19T02:42:17.112Z,12
2017-04-19T02:43:29.964Z,12
2017-04-19T02:44:42.566Z,12
2017-04-19T02:45:54.954Z,12
2017-04-19T02:47:08.135Z,12
2017-04-19T02:48:20.980Z,12
2017-04-19T02:49:33.873Z,12
2017-04-19T02:50:46.731Z,12
2017-04-19T02:51:59.085Z,12
2017-04-19T02:53:11.948Z,12
2017-04-19T02:54:24.809Z,12
2017-04-19T02:55:37.869Z,12
2017-04-19T02:56:50.923Z,12
2017-04-19T02:58:04.061Z,12
2017-04-19T02:59:16.940Z,12
2017-04-19T03:00:29.471Z,12
2017-04-19T03:01:42.345Z,12
2017-04-19T03:02:55.204Z,12
2017-04-19T03:04:08.253Z,12
2017-04-19T03:05:21.128Z,12
2017-04-19T03:06:33.997Z,12
2017-04-19T03:07:46.842Z,12
2017-04-19T03:08:59.711Z,12
2017-04-19T03:10:12.087Z,12
2017-04-19T03:11:24.457Z,12
2017-04-19T03:12:37.318Z,12
2017-04-19T03:13:50.238Z,12
2017-04-19T03:15:02.116Z,12
2017-04-19T03:16:14.494Z,12
2017-04-19T03:17:27.270Z,12
2017-04-19T03:18:40.014Z,12
2017-04-19T03:19:52.763Z,12
2017-04-19T03:21:05.671Z,12
2017-04-19T03:22:18.389Z,12
2017-04-19T03:23:31.101Z,12
2017-04-19T03:24:43.799Z,12
2017-04-19T03:25:56.041Z,12
2017-04-19T03:27:08.756Z,4
2017-04-19T03:28:21.005Z,4
2017-04-19T03:29:33.840Z,16
2017-04-19T03:30:45.643Z,12
2017-04-19T03:31:58.339Z,12
2017-04-19T03:33:11.048Z,4
2017-04-19T03:34:23.282Z,4
2017-04-19T03:35:35.992Z,4
2017-04-19T03:36:48.696Z,4
2017-04-19T03:38:00.925Z,16
2017-04-19T03:39:13.632Z,12
2017-04-19T03:40:25.876Z,12
2017-04-19T03:41:38.605Z,12
2017-04-19T03:42:51.516Z,12
2017-04-19T03:44:04.228Z,12
2017-04-19T03:45:17.028Z,12
2017-04-19T03:46:29.724Z,12
2017-04-19T03:47:41.954Z,12
2017-04-19T03:48:54.181Z,12
2017-04-19T03:50:06.895Z,12
2017-04-19T03:51:19.599Z,12
2017-04-19T03:52:32.302Z,12
2017-04-19T03:53:45.004Z,12
2017-04-19T03:54:57.706Z,12
2017-04-19T03:56:09.461Z,12
2017-04-19T03:57:22.148Z,12
2017-04-19T03:58:35.043Z,12
2017-04-19T03:59:47.728Z,12
2017-04-19T04:01:00.620Z,12
2017-04-19T04:02:13.310Z,12
2017-04-19T04:03:25.995Z,12
2017-04-19T04:04:38.685Z,12
2017-04-19T04:05:50.905Z,12
2017-04-19T04:07:02.678Z,12
2017-04-19T04:08:14.893Z,12
2017-04-19T04:09:27.885Z,12
2017-04-19T04:10:40.564Z,4
2017-04-19T04:11:52.776Z,16
2017-04-19T04:13:05.465Z,12
2017-04-19T04:14:17.679Z,12
2017-04-19T04:15:30.565Z,12
2017-04-19T04:16:43.250Z,4
2017-04-19T04:17:56.042Z,16
2017-04-19T04:19:08.831Z,12
2017-04-19T04:20:21.527Z,12
2017-04-19T04:21:34.210Z,12
2017-04-19T04:22:46.903Z,12
2017-04-19T04:23:59.589Z,12
2017-04-19T04:25:11.800Z,12
2017-04-19T04:26:24.317Z,12
2017-04-19T04:27:37.003Z,8
2017-04-19T04:28:49.692Z,12
2017-04-19T04:30:02.381Z,12
2017-04-19T04:31:15.067Z,8
2017-04-19T04:32:27.756Z,4
2017-04-19T04:33:40.480Z,16
2017-04-19T04:34:52.422Z,16
2017-04-19T04:36:05.102Z,16
2017-04-19T04:37:18.093Z,12
2017-04-19T04:38:30.297Z,12
2017-04-19T04:39:42.983Z,12
2017-04-19T04:40:55.203Z,12
2017-04-19T04:42:07.891Z,12
2017-04-19T04:43:20.576Z,12
2017-04-19T04:44:33.257Z,12
2017-04-19T04:45:45.942Z,12
2017-04-19T04:46:58.628Z,12
2017-04-19T04:48:11.863Z,12
2017-04-19T04:49:24.547Z,12
2017-04-19T04:50:37.229Z,12
2017-04-19T04:51:49.916Z,12
2017-04-19T04:53:01.953Z,12
2017-04-19T04:54:14.663Z,8
2017-04-19T04:55:26.870Z,12
2017-04-19T04:56:39.077Z,12
2017-04-19T04:57:51.760Z,12
2017-04-19T04:59:04.444Z,4
2017-04-19T05:00:17.132Z,4
2017-04-19T05:01:29.816Z,4
2017-04-19T05:02:42.510Z,12
2017-04-19T05:03:55.061Z,12
2017-04-19T05:05:07.269Z,12
2017-04-19T05:06:19.954Z,12
2017-04-19T05:07:32.167Z,12
2017-04-19T05:08:44.846Z,12
2017-04-19T05:09:57.055Z,12
2017-04-19T05:11:09.743Z,12
2017-04-19T05:12:21.956Z,12
2017-04-19T05:13:34.639Z,12
2017-04-19T05:14:47.321Z,12
2017-04-19T05:15:59.051Z,12
2017-04-19T05:17:11.736Z,12
2017-04-19T05:18:24.416Z,12
2017-04-19T05:19:37.100Z,12
2017-04-19T05:20:49.785Z,12
2017-04-19T05:22:02.005Z,12
2017-04-19T05:23:14.211Z,12
2017-04-19T05:24:26.419Z,8
2017-04-19T05:25:39.107Z,4
2017-04-19T05:26:51.318Z,4
2017-04-19T05:28:04.000Z,4
2017-04-19T05:29:16.683Z,12
2017-04-19T05:30:29.363Z,12
2017-04-19T05:31:42.276Z,12
2017-04-19T05:32:54.962Z,12
2017-04-19T05:34:07.169Z,12
2017-04-19T05:35:19.850Z,12
2017-04-19T05:36:32.539Z,12
2017-04-19T05:37:45.225Z,12
2017-04-19T05:38:57.441Z,12
2017-04-19T05:40:10.167Z,12
2017-04-19T05:41:22.852Z,12
2017-04-19T05:42:35.544Z,12
2017-04-19T05:43:47.748Z,12
2017-04-19T05:44:59.492Z,12
2017-04-19T05:46:11.704Z,16
2017-04-19T05:47:24.410Z,12
2017-04-19T05:48:37.110Z,12
2017-04-19T05:49:49.321Z,8
2017-04-19T05:51:01.528Z,12
2017-04-19T05:52:14.322Z,4
2017-04-19T05:53:27.332Z,16
2017-04-19T05:54:40.017Z,16
2017-04-19T05:55:52.225Z,12
2017-04-19T05:57:04.904Z,12
2017-04-19T05:58:17.127Z,8
2017-04-19T05:59:29.823Z,12
2017-04-19T06:00:42.507Z,12
2017-04-19T06:01:54.712Z,12
2017-04-19T06:03:06.930Z,12
2017-04-19T06:04:19.814Z,12
2017-04-19T06:05:31.548Z,12
2017-04-19T06:06:44.231Z,12
2017-04-19T06:07:56.914Z,12
2017-04-19T06:09:09.895Z,12
2017-04-19T06:10:22.579Z,12
2017-04-19T06:11:34.785Z,12
2017-04-19T06:12:47.471Z,12
2017-04-19T06:14:00.153Z,4
2017-04-19T06:15:13.041Z,12
2017-04-19T06:16:25.736Z,12
2017-04-19T06:17:38.549Z,12
2017-04-19T06:18:51.380Z,12
2017-04-19T06:20:04.511Z,12
2017-04-19T06:21:16.849Z,12
2017-04-19T06:22:29.673Z,4
2017-04-19T06:23:42.496Z,16
2017-04-19T06:24:54.837Z,16
2017-04-19T06:26:07.174Z,12
2017-04-19T06:27:19.991Z,12
2017-04-19T06:28:32.810Z,12
2017-04-19T06:29:45.142Z,12
2017-04-19T06:30:56.996Z,12
2017-04-19T06:32:09.818Z,16
2017-04-19T06:33:22.639Z,12
2017-04-19T06:34:35.458Z,4
2017-04-19T06:35:48.279Z,4
2017-04-19T06:37:01.398Z,12
2017-04-19T06:38:14.222Z,12
2017-04-19T06:39:27.085Z,12
2017-04-19T06:40:39.908Z,12
2017-04-19T06:41:52.731Z,12
2017-04-19T06:43:05.560Z,12
2017-04-19T06:44:18.379Z,12
2017-04-19T06:45:31.198Z,12
2017-04-19T06:46:44.017Z,4
2017-04-19T06:47:57.134Z,4
2017-04-19T06:49:09.479Z,12
2017-04-19T06:50:22.300Z,12
2017-04-19T06:51:34.634Z,12
2017-04-19T06:52:47.459Z,12
2017-04-19T06:54:00.279Z,4
2017-04-19T06:55:13.539Z,12
2017-04-19T06:56:26.364Z,16
2017-04-19T06:57:39.193Z,16
2017-04-19T06:58:52.013Z,16
2017-04-19T07:00:04.834Z,12
2017-04-19T07:01:17.166Z,12
2017-04-19T07:02:29.887Z,12
2017-04-19T07:03:42.873Z,12
2017-04-19T07:04:55.556Z,12
2017-04-19T07:06:08.242Z,12
2017-04-19T07:07:20.926Z,12
2017-04-19T07:08:33.614Z,12
2017-04-19T07:09:46.306Z,12
2017-04-19T07:10:59.114Z,12
2017-04-19T07:12:11.322Z,12
2017-04-19T07:13:24.008Z,12
2017-04-19T07:14:36.989Z,12
2017-04-19T07:15:49.676Z,12
2017-04-19T07:17:02.356Z,12
2017-04-19T07:18:15.037Z,12
2017-04-19T07:19:27.724Z,12
2017-04-19T07:20:40.233Z,12
2017-04-19T07:21:52.444Z,12
2017-04-19T07:23:05.128Z,4
2017-04-19T07:24:17.813Z,12
2017-04-19T07:25:30.693Z,12
2017-04-19T07:26:43.749Z,8
2017-04-19T07:27:55.958Z,16
2017-04-19T07:29:08.642Z,12
2017-04-19T07:30:20.852Z,12
2017-04-19T07:31:33.736Z,4
2017-04-19T07:32:46.418Z,16
2017-04-19T07:33:58.631Z,12
2017-04-19T07:35:11.317Z,12
2017-04-19T07:36:24.030Z,16
2017-04-19T07:37:36.238Z,12
2017-04-19T07:38:48.924Z,12
2017-04-19T07:40:01.134Z,12
2017-04-19T07:41:13.968Z,4
2017-04-19T07:42:27.043Z,12
2017-04-19T07:43:39.720Z,16
2017-04-19T07:44:51.936Z,12
2017-04-19T07:46:04.620Z,12
2017-04-19T07:47:17.404Z,12
2017-04-19T07:48:30.235Z,4
2017-04-19T07:49:42.572Z,12
2017-04-19T07:50:55.398Z,12
2017-04-19T07:52:08.223Z,12
2017-04-19T07:53:21.252Z,16
2017-04-19T07:54:34.063Z,12
2017-04-19T07:55:46.995Z,12
2017-04-19T07:56:59.813Z,12
2017-04-19T07:58:12.448Z,12
2017-04-19T07:59:25.263Z,12
2017-04-19T08:00:37.609Z,12
2017-04-19T08:01:49.458Z,4
2017-04-19T08:03:01.795Z,12
2017-04-19T08:04:13.951Z,12
2017-04-19T08:05:26.295Z,12
2017-04-19T08:06:38.642Z,12
2017-04-19T08:07:51.459Z,12
2017-04-19T08:09:03.307Z,12
2017-04-19T08:10:15.649Z,12
2017-04-19T08:11:28.485Z,12
2017-04-19T08:12:41.305Z,4
2017-04-19T08:13:53.645Z,12
2017-04-19T08:15:06.179Z,12
2017-04-19T08:16:18.031Z,12
2017-04-19T08:17:29.882Z,12
2017-04-19T08:18:42.708Z,20
2017-04-19T08:19:55.240Z,12
2017-04-19T08:21:08.060Z,12
2017-04-19T08:22:20.395Z,12
2017-04-19T08:23:32.735Z,4
2017-04-19T08:24:45.550Z,12
2017-04-19T08:25:58.073Z,8
2017-04-19T08:27:10.895Z,4
2017-04-19T08:28:23.232Z,16
2017-04-19T08:29:35.088Z,12
2017-04-19T08:30:47.632Z,12
2017-04-19T08:31:59.401Z,12
2017-04-19T08:33:11.615Z,12
2017-04-19T08:34:24.295Z,16
2017-04-19T08:35:36.026Z,12
2017-04-19T08:36:47.759Z,12
2017-04-19T08:38:00.442Z,12
2017-04-19T08:39:12.653Z,12
2017-04-19T08:40:24.864Z,16
2017-04-19T08:41:37.051Z,16
2017-04-19T08:42:49.270Z,12
2017-04-19T08:44:01.952Z,12
2017-04-19T08:45:13.687Z,12
2017-04-19T08:46:26.372Z,12
2017-04-19T08:47:39.057Z,12
2017-04-19T08:48:51.740Z,12
2017-04-19T08:50:03.948Z,12
2017-04-19T08:51:16.628Z,12
2017-04-19T08:52:28.835Z,12
2017-04-19T08:53:41.717Z,4
2017-04-19T08:54:54.401Z,12
2017-04-19T08:56:06.611Z,12
2017-04-19T08:57:19.387Z,16
2017-04-19T08:58:32.081Z,12
2017-04-19T08:59:44.285Z,12
2017-04-19T09:00:56.974Z,12
2017-04-19T09:02:09.183Z,12
2017-04-19T09:03:21.866Z,4
2017-04-19T09:04:34.845Z,8
2017-04-19T09:05:47.052Z,8
2017-04-19T09:06:59.744Z,4
2017-04-19T09:08:11.953Z,16
2017-04-19T09:09:24.636Z,16
2017-04-19T09:10:37.144Z,16
2017-04-19T09:11:48.575Z,16
2017-04-19T09:13:01.256Z,16
2017-04-19T09:14:12.513Z,16
2017-04-19T09:15:25.198Z,20
2017-04-19T09:16:37.927Z,20
2017-04-19T09:17:50.738Z,24
2017-04-19T09:19:02.585Z,8
2017-04-19T09:20:14.926Z,12
2017-04-19T09:21:41.821Z,16
2017-04-19T09:22:54.779Z,16
2017-04-19T09:24:07.679Z,20
2017-04-19T09:25:19.529Z,24
2017-04-19T09:26:32.368Z,28
2017-04-19T09:27:45.187Z,28
2017-04-19T09:28:57.522Z,32
2017-04-19T09:30:09.857Z,36
2017-04-19T09:31:22.489Z,40
2017-04-19T09:32:34.824Z,44
2017-04-19T09:33:47.651Z,44
2017-04-19T09:34:59.986Z,52
2017-04-19T09:36:12.805Z,52
2017-04-19T09:37:24.657Z,60
2017-04-19T09:38:37.523Z,64
2017-04-19T09:39:49.861Z,68
2017-04-19T09:41:02.681Z,72
2017-04-19T09:42:15.701Z,76
2017-04-19T09:43:28.581Z,80
2017-04-19T09:44:41.404Z,88
2017-04-19T09:45:53.255Z,92
2017-04-19T09:47:06.077Z,96
2017-04-19T09:48:18.897Z,100
2017-04-19T09:49:31.236Z,104
2017-04-19T09:50:44.059Z,112
2017-04-19T09:51:56.920Z,116
2017-04-19T09:53:23.806Z,124
2017-04-19T09:54:35.657Z,132
2017-04-19T09:55:48.475Z,140
2017-04-19T09:57:01.294Z,152
2017-04-19T09:58:13.635Z,168
2017-04-19T09:59:26.460Z,172
2017-04-19T10:00:38.309Z,180
2017-04-19T10:01:51.129Z,188
2017-04-19T10:03:03.952Z,192
2017-04-19T10:04:16.285Z,204
2017-04-19T10:05:28.706Z,208
2017-04-19T10:06:41.090Z,224
2017-04-19T10:07:53.939Z,224
2017-04-19T10:09:06.474Z,228
2017-04-19T10:10:18.807Z,228
2017-04-19T10:11:31.625Z,220
2017-04-19T10:12:43.963Z,224
2017-04-19T10:13:56.788Z,216
2017-04-19T10:15:09.327Z,212
2017-04-19T10:16:22.143Z,208
2017-04-19T10:17:34.480Z,200
2017-04-19T10:18:46.824Z,212
2017-04-19T10:19:59.646Z,208
2017-04-19T10:21:12.686Z,200
2017-04-19T10:22:25.513Z,196
2017-04-19T10:23:38.331Z,192
2017-04-19T10:24:50.183Z,192
2017-04-19T10:26:02.519Z,192
2017-04-19T10:27:15.344Z,196
2017-04-19T10:28:28.166Z,200
2017-04-19T10:29:40.023Z,204
2017-04-19T10:30:52.358Z,212
2017-04-19T10:32:05.182Z,220
2017-04-19T10:33:17.518Z,228
2017-04-19T10:34:29.376Z,240
2017-04-19T10:35:42.278Z,244
2017-04-19T10:36:55.324Z,248
2017-04-19T10:38:07.661Z,240
2017-04-19T10:39:20.000Z,240
2017-04-19T10:40:32.824Z,260
2017-04-19T10:41:45.458Z,252
2017-04-19T10:42:58.283Z,264
2017-04-19T10:44:11.102Z,276
2017-04-19T10:45:23.438Z,284
2017-04-19T10:46:36.231Z,292
2017-04-19T10:47:49.216Z,312
2017-04-19T10:49:00.953Z,320
2017-04-19T10:50:13.689Z,324
2017-04-19T10:51:25.902Z,368
2017-04-19T10:52:38.813Z,392
2017-04-19T10:53:51.037Z,420
2017-04-19T10:55:03.714Z,444
2017-04-19T10:56:16.402Z,476
2017-04-19T10:57:27.660Z,508
2017-04-19T10:58:40.640Z,492
2017-04-19T10:59:52.398Z,492
2017-04-19T11:01:05.081Z,500
2017-04-19T11:02:16.342Z,508
2017-04-19T11:03:28.761Z,512
2017-04-19T11:04:40.980Z,512
2017-04-19T11:05:53.684Z,524
2017-04-19T11:07:05.989Z,556
2017-04-19T11:08:18.721Z,568
2017-04-19T11:09:30.290Z,588
2017-04-19T11:10:42.985Z,608
2017-04-19T11:11:54.732Z,624
2017-04-19T11:13:07.413Z,632
2017-04-19T11:14:20.094Z,628
2017-04-19T11:15:32.775Z,636
2017-04-19T11:16:44.986Z,624
2017-04-19T11:17:56.718Z,612
2017-04-19T11:19:09.394Z,624
2017-04-19T11:20:22.076Z,644
2017-04-19T11:21:34.291Z,668
2017-04-19T11:22:47.159Z,676
2017-04-19T11:23:59.842Z,680
2017-04-19T11:25:12.058Z,676
2017-04-19T11:26:24.754Z,624
2017-04-19T11:27:36.971Z,600
2017-04-19T11:28:49.668Z,604
2017-04-19T11:30:01.884Z,644
2017-04-19T11:31:14.091Z,620
2017-04-19T11:32:26.884Z,576
2017-04-19T11:33:39.236Z,632
2017-04-19T11:34:52.095Z,632
2017-04-19T11:36:04.955Z,620
2017-04-19T11:37:16.985Z,612
2017-04-19T11:38:30.013Z,620
2017-04-19T11:39:41.952Z,672
2017-04-19T11:40:53.887Z,652
2017-04-19T11:42:20.366Z,680
2017-04-19T11:43:33.341Z,696
2017-04-19T11:44:45.898Z,744
2017-04-19T11:45:59.169Z,752
2017-04-19T11:47:10.776Z,784
2017-04-19T11:48:23.342Z,800
2017-04-19T11:49:36.647Z,788
2017-04-19T11:50:48.720Z,812
2017-04-19T11:52:02.165Z,816
2017-04-19T11:53:14.806Z,832
2017-04-19T11:54:27.952Z,796
2017-04-19T11:55:40.878Z,764
2017-04-19T11:56:53.212Z,748
2017-04-19T11:58:05.269Z,780
2017-04-19T11:59:17.620Z,764
2017-04-19T12:00:29.958Z,784
2017-04-19T12:01:41.813Z,808
2017-04-19T12:02:54.834Z,868
2017-04-19T12:04:07.732Z,844
2017-04-19T12:05:19.691Z,852
2017-04-19T12:06:32.514Z,868
2017-04-19T12:07:44.854Z,896
2017-04-19T12:08:57.200Z,896
2017-04-19T12:10:10.030Z,932
2017-04-19T12:11:22.868Z,944
2017-04-19T12:12:34.719Z,928
2017-04-19T12:13:47.055Z,936
2017-04-19T12:14:59.886Z,892
2017-04-19T12:16:12.219Z,872
2017-04-19T12:17:24.465Z,912
2017-04-19T12:18:36.686Z,884
2017-04-19T12:19:49.452Z,872
2017-04-19T12:21:01.745Z,928
2017-04-19T12:22:13.973Z,880
2017-04-19T12:23:26.725Z,864
2017-04-19T12:24:39.524Z,940
2017-04-19T12:25:51.842Z,1072
2017-04-19T12:27:04.629Z,1944
2017-04-19T12:28:17.344Z,1412
2017-04-19T12:29:29.594Z,1344
2017-04-19T12:30:41.370Z,1208
2017-04-19T12:31:54.112Z,1192
2017-04-19T12:33:06.905Z,1148
2017-04-19T12:34:19.465Z,1132
2017-04-19T12:35:31.293Z,1104
2017-04-19T12:36:43.163Z,1108
2017-04-19T12:37:55.103Z,1368
2017-04-19T12:39:07.414Z,1112
2017-04-19T12:40:19.625Z,1164
2017-04-19T12:41:31.827Z,1188
2017-04-19T12:42:44.514Z,1148
2017-04-19T12:43:57.196Z,1172
2017-04-19T12:45:08.936Z,1184
2017-04-19T12:46:21.143Z,1276
2017-04-19T12:47:33.831Z,1280
2017-04-19T12:48:46.037Z,1452
2017-04-19T12:49:58.718Z,1204
2017-04-19T12:51:10.950Z,1168
2017-04-19T12:52:23.781Z,1144
2017-04-19T12:53:36.661Z,1108
2017-04-19T12:54:47.915Z,1108
2017-04-19T12:56:00.120Z,1084
2017-04-19T12:57:11.862Z,1064
2017-04-19T12:58:24.547Z,1116
2017-04-19T12:59:37.230Z,1284
2017-04-19T13:00:49.918Z,1600
2017-04-19T13:02:01.653Z,1432
2017-04-19T13:03:13.858Z,1580
2017-04-19T13:04:26.542Z,1360
2017-04-19T13:05:38.278Z,1992
2017-04-19T13:06:50.974Z,1468
2017-04-19T13:08:03.862Z,1212
2017-04-19T13:09:16.753Z,1172
2017-04-19T13:10:28.490Z,1176
2017-04-19T13:11:40.468Z,1192
2017-04-19T13:12:52.345Z,1264
2017-04-19T13:14:04.556Z,1292
2017-04-19T13:15:15.819Z,1308
2017-04-19T13:16:28.511Z,1328
2017-04-19T13:17:41.198Z,1332
2017-04-19T13:18:52.932Z,1288
2017-04-19T13:20:05.165Z,1300
2017-04-19T13:21:17.097Z,1300
2017-04-19T13:22:28.842Z,1560
2017-04-19T13:23:40.578Z,1424
2017-04-19T13:24:52.481Z,1336
2017-04-19T13:26:05.171Z,1332
2017-04-19T13:27:17.381Z,1328
2017-04-19T13:28:29.592Z,1416
2017-04-19T13:29:40.853Z,1416
2017-04-19T13:30:53.538Z,1408
2017-04-19T13:32:05.750Z,1380
2017-04-19T13:33:18.437Z,1296
2017-04-19T13:34:30.648Z,1244
2017-04-19T13:35:43.328Z,1168
2017-04-19T13:36:55.064Z,1148
2017-04-19T13:38:07.274Z,1388
2017-04-19T13:39:19.496Z,2020
2017-04-19T13:40:31.432Z,1336
2017-04-19T13:41:43.646Z,1264
2017-04-19T13:42:56.340Z,1248
2017-04-19T13:44:08.080Z,1228
2017-04-19T13:45:34.588Z,1484
2017-04-19T13:46:46.804Z,1580
2017-04-19T13:47:59.494Z,2200
2017-04-19T13:49:11.710Z,1692
2017-04-19T13:50:23.949Z,1664
2017-04-19T13:51:36.656Z,2604
2017-04-19T13:52:49.356Z,1608
2017-04-19T13:54:02.073Z,2348
2017-04-19T13:55:14.772Z,1980
2017-04-19T13:56:27.865Z,2328
2017-04-19T13:57:40.554Z,1988
2017-04-19T13:58:52.763Z,2292
2017-04-19T14:00:04.976Z,2012
2017-04-19T14:01:17.190Z,1820
2017-04-19T14:02:30.186Z,1696
2017-04-19T14:03:42.408Z,1596
2017-04-19T14:04:55.097Z,1508
2017-04-19T14:06:07.792Z,1420
2017-04-19T14:07:20.514Z,1360
2017-04-19T14:08:33.389Z,1436
2017-04-19T14:09:45.619Z,1452
2017-04-19T14:10:58.326Z,1572
2017-04-19T14:12:11.022Z,1520
2017-04-19T14:13:23.713Z,1452
2017-04-19T14:14:36.401Z,1412
2017-04-19T14:15:49.100Z,1372
2017-04-19T14:17:00.837Z,1348
2017-04-19T14:18:13.526Z,1344
2017-04-19T14:19:25.736Z,1364
2017-04-19T14:20:38.429Z,1320
2017-04-19T14:21:51.117Z,1296
2017-04-19T14:23:03.804Z,1264
2017-04-19T14:24:16.012Z,1320
2017-04-19T14:25:28.778Z,1276
2017-04-19T14:26:41.464Z,1276
2017-04-19T14:27:53.676Z,1236
2017-04-19T14:29:06.560Z,1320
2017-04-19T14:30:18.769Z,1356
2017-04-19T14:31:31.561Z,1276
2017-04-19T14:32:44.382Z,1268
2017-04-19T14:33:56.732Z,1196
2017-04-19T14:35:09.859Z,1312
2017-04-19T14:36:22.680Z,1360
2017-04-19T14:37:35.508Z,1380
2017-04-19T14:38:47.846Z,1340
2017-04-19T14:40:00.841Z,1320
2017-04-19T14:41:13.671Z,1312
2017-04-19T14:42:26.010Z,1408
2017-04-19T14:43:38.835Z,1364
2017-04-19T14:44:51.656Z,1332
2017-04-19T14:46:04.476Z,1476
2017-04-19T14:47:17.299Z,1728
2017-04-19T14:48:30.953Z,1508
2017-04-19T14:49:43.294Z,1520
2017-04-19T14:50:55.870Z,1568
2017-04-19T14:52:08.697Z,1672
2017-04-19T14:53:21.520Z,1504
2017-04-19T14:54:33.384Z,1692
2017-04-19T14:55:45.273Z,1720
2017-04-19T14:56:58.095Z,1712
2017-04-19T14:58:10.917Z,1976
2017-04-19T14:59:23.756Z,1700
2017-04-19T15:00:36.101Z,1560
2017-04-19T15:01:48.940Z,1524
2017-04-19T15:03:15.347Z,1992
2017-04-19T15:04:27.712Z,1536
2017-04-19T15:05:40.542Z,1464
2017-04-19T15:06:52.886Z,1308
2017-04-19T15:08:05.713Z,1320
2017-04-19T15:09:18.540Z,1320
2017-04-19T15:10:30.877Z,1320
2017-04-19T15:11:43.701Z,1268
2017-04-19T15:12:56.041Z,1268
2017-04-19T15:14:08.868Z,1364
2017-04-19T15:15:21.205Z,1492
2017-04-19T15:16:33.449Z,1504
2017-04-19T15:17:46.135Z,1604
2017-04-19T15:18:58.370Z,1768
2017-04-19T15:20:11.060Z,1340
2017-04-19T15:21:23.273Z,1296
2017-04-19T15:22:35.116Z,1348
2017-04-19T15:23:47.333Z,1552
2017-04-19T15:25:00.016Z,1324
2017-04-19T15:26:12.705Z,1200
2017-04-19T15:27:25.401Z,1204
2017-04-19T15:28:37.813Z,1180
2017-04-19T15:29:50.504Z,1116
2017-04-19T15:31:03.193Z,1072
2017-04-19T15:32:15.405Z,1076
2017-04-19T15:33:28.092Z,1200
2017-04-19T15:34:40.503Z,1184
2017-04-19T15:35:53.189Z,1064
2017-04-19T15:37:05.399Z,1020
2017-04-19T15:38:17.610Z,1056
2017-04-19T15:39:30.047Z,1148
2017-04-19T15:40:57.135Z,1028
2017-04-19T15:42:09.831Z,1004
2017-04-19T15:43:22.517Z,984
2017-04-19T15:44:35.205Z,1024
2017-04-19T15:45:46.942Z,1016
2017-04-19T15:46:59.935Z,1016
2017-04-19T15:48:12.627Z,1108
2017-04-19T15:49:24.839Z,1048
2017-04-19T15:50:37.057Z,920
2017-04-19T15:51:49.744Z,888
2017-04-19T15:53:02.053Z,868
2017-04-19T15:54:14.742Z,876
2017-04-19T15:55:27.426Z,856
2017-04-19T15:56:40.113Z,828
2017-04-19T15:57:52.796Z,840
2017-04-19T15:59:05.484Z,836
2017-04-19T16:00:18.176Z,848
2017-04-19T16:01:30.389Z,860
2017-04-19T16:02:43.097Z,868
2017-04-19T16:03:55.786Z,832
2017-04-19T16:05:08.477Z,932
2017-04-19T16:06:20.688Z,936
2017-04-19T16:07:33.371Z,900
2017-04-19T16:08:46.065Z,864
2017-04-19T16:09:58.926Z,820
2017-04-19T16:11:11.615Z,800
2017-04-19T16:12:24.306Z,888
2017-04-19T16:13:51.085Z,824
2017-04-19T16:15:03.777Z,908
2017-04-19T16:16:16.472Z,784
2017-04-19T16:17:29.180Z,760
2017-04-19T16:18:41.870Z,732
2017-04-19T16:19:54.557Z,736
2017-04-19T16:21:07.255Z,824
2017-04-19T16:22:19.475Z,888
2017-04-19T16:23:31.282Z,916
2017-04-19T16:24:43.219Z,936
2017-04-19T16:25:55.911Z,684
2017-04-19T16:27:08.122Z,652
2017-04-19T16:28:20.810Z,860
2017-04-19T16:29:33.698Z,948
2017-04-19T16:30:45.915Z,1056
2017-04-19T16:31:58.600Z,980
2017-04-19T16:33:10.808Z,824
2017-04-19T16:34:23.496Z,824
2017-04-19T16:35:36.405Z,908
2017-04-19T16:36:49.095Z,932
2017-04-19T16:38:01.311Z,868
2017-04-19T16:39:14.002Z,896
2017-04-19T16:40:26.831Z,808
2017-04-19T16:41:39.535Z,768
2017-04-19T16:42:51.753Z,740
2017-04-19T16:44:04.448Z,764
2017-04-19T16:45:17.137Z,836
2017-04-19T16:46:29.463Z,928
2017-04-19T16:47:42.299Z,1048
2017-04-19T16:48:54.656Z,1144
2017-04-19T16:50:07.497Z,1080
2017-04-19T16:51:34.644Z,844
2017-04-19T16:52:47.486Z,740
2017-04-19T16:54:00.320Z,640
2017-04-19T16:55:13.153Z,748
2017-04-19T16:56:25.993Z,608
2017-04-19T16:57:38.344Z,708